createdAt,value
2022-08-31T00:03:15.271Z,98296.47
2022-08-31T00:08:17.918Z,98362.13
2022-08-31T00:13:20.163Z,98393.38
2022-08-31T00:18:23.432Z,98369.25
2022-08-31T00:23:26.155Z,98331.81
2022-08-31T00:28:28.466Z,98372.38
2022-08-31T00:33:30.677Z,98356.81
2022-08-31T00:38:34.592Z,98370.75
2022-08-31T00:43:48.657Z,98376.03
2022-08-31T00:49:12.539Z,98348.72
2022-08-31T00:54:19.389Z,98368.03
2022-08-31T00:59:22.325Z,98328.81
2022-08-31T01:04:24.580Z,98343.44
2022-08-31T01:09:27.819Z,98378.97
2022-08-31T01:14:30.333Z,98346.59
2022-08-31T01:19:35.545Z,98376.78
2022-08-31T01:24:39.963Z,98352.97
2022-08-31T01:29:42.357Z,98322.25
2022-08-31T01:34:44.587Z,98331.13
2022-08-31T01:39:47.061Z,98325.63
2022-08-31T01:44:49.460Z,98360.84
2022-08-31T01:49:51.825Z,98328.38
2022-08-31T01:54:58.344Z,98310.47
2022-08-31T02:00:04.428Z,98331.19
2022-08-31T02:05:22.938Z,98233.72
2022-08-31T02:10:25.716Z,98325.44
2022-08-31T02:15:27.975Z,98331.50
2022-08-31T02:20:30.428Z,98321.00
2022-08-31T02:25:33.146Z,98327.47
2022-08-31T02:30:36.883Z,98293.34
2022-08-31T02:35:39.247Z,98313.13
2022-08-31T02:40:42.138Z,98305.63
2022-08-31T02:45:45.530Z,98301.28
2022-08-31T02:51:05.479Z,98296.13
2022-08-31T02:56:08.364Z,98289.44
2022-08-31T03:01:10.953Z,98316.38
2022-08-31T03:06:13.648Z,98330.06
2022-08-31T03:11:16.755Z,98227.47
2022-08-31T03:16:19.453Z,98285.59
2022-08-31T03:21:21.811Z,98267.47
2022-08-31T03:26:24.559Z,98314.03
2022-08-31T03:31:27.094Z,98292.59
2022-08-31T03:36:30.613Z,98301.25
2022-08-31T03:41:33.492Z,98278.00
2022-08-31T03:46:36.205Z,98277.06
2022-08-31T03:51:38.810Z,98271.81
2022-08-31T03:56:42.190Z,98323.47
2022-08-31T04:01:44.604Z,98260.25
2022-08-31T04:07:05.494Z,98297.06
2022-08-31T04:12:40.192Z,98278.91
2022-08-31T04:18:01.728Z,98240.25
2022-08-31T04:23:20.191Z,98277.63
2022-08-31T04:28:26.957Z,98293.94
2022-08-31T04:33:29.260Z,98256.13
2022-08-31T04:38:33.259Z,98266.25
2022-08-31T04:43:37.203Z,98309.00
2022-08-31T04:48:40.436Z,98297.56
2022-08-31T04:53:44.414Z,98287.91
2022-08-31T04:58:53.078Z,98317.34
2022-08-31T05:03:57.092Z,98281.66
2022-08-31T05:09:04.164Z,98333.00
2022-08-31T05:14:07.369Z,98340.16
2022-08-31T05:19:13.917Z,98313.25
2022-08-31T05:24:22.737Z,98300.25
2022-08-31T05:29:26.418Z,98318.38
2022-08-31T05:34:45.808Z,98316.69
2022-08-31T05:39:48.231Z,98295.19
2022-08-31T05:44:50.661Z,98288.88
2022-08-31T05:49:53.129Z,98274.88
2022-08-31T05:54:56.933Z,98307.19
2022-08-31T05:59:59.194Z,98288.34
2022-08-31T06:05:02.375Z,98299.41
2022-08-31T06:10:06.027Z,98295.53
2022-08-31T06:15:09.898Z,98254.34
2022-08-31T06:20:17.007Z,98315.78
2022-08-31T06:25:23.801Z,98301.00
2022-08-31T06:30:27.739Z,98326.66
2022-08-31T06:35:32.156Z,98314.59
2022-08-31T06:40:54.688Z,98302.91
2022-08-31T06:46:27.096Z,98341.13
2022-08-31T06:51:39.126Z,98322.94
2022-08-31T06:56:41.565Z,98285.66
2022-08-31T07:02:07.680Z,98334.53
2022-08-31T07:07:11.704Z,98292.41
2022-08-31T07:12:15.823Z,98297.31
2022-08-31T07:17:18.220Z,98300.34
2022-08-31T07:22:20.625Z,98305.53
2022-08-31T07:27:27.709Z,98265.47
2022-08-31T07:32:34.392Z,98324.75
2022-08-31T07:37:56.004Z,98329.56
2022-08-31T07:43:04.866Z,98281.16
2022-08-31T07:48:10.507Z,98301.84
2022-08-31T07:53:28.642Z,98357.31
2022-08-31T07:58:50.379Z,98343.63
2022-08-31T08:03:55.116Z,98308.91
2022-08-31T08:09:24.923Z,98262.47
2022-08-31T08:14:45.989Z,98324.69
2022-08-31T08:19:55.169Z,98266.78
2022-08-31T08:25:01.320Z,98334.75
2022-08-31T08:30:16.592Z,98338.28
2022-08-31T08:35:19.713Z,98333.50
2022-08-31T08:40:30.661Z,98323.75
2022-08-31T08:45:34.171Z,98283.41
2022-08-31T08:50:40.094Z,98315.47
2022-08-31T08:55:42.941Z,98343.78
2022-08-31T09:00:51.459Z,98282.88
2022-08-31T09:06:09.851Z,98341.63
2022-08-31T09:11:50.353Z,98327.59
2022-08-31T09:17:04.447Z,98339.81
2022-08-31T09:22:07.342Z,98286.16
2022-08-31T09:27:18.462Z,98368.03
2022-08-31T09:32:26.661Z,98368.63
2022-08-31T09:37:34.404Z,98385.22
2022-08-31T09:42:37.077Z,98378.16
2022-08-31T09:47:48.835Z,98387.72
2022-08-31T09:53:11.448Z,98386.63
2022-08-31T09:58:14.671Z,98372.75
2022-08-31T10:03:28.658Z,98340.34
2022-08-31T10:08:57.299Z,98347.44
2022-08-31T10:14:08.934Z,98366.44
2022-08-31T10:19:20.847Z,98397.50
2022-08-31T10:24:34.809Z,98378.25
2022-08-31T10:29:46.373Z,98383.03
2022-08-31T10:35:06.184Z,98408.38
2022-08-31T10:40:21.946Z,98411.94
2022-08-31T10:45:26.665Z,98380.44
2022-08-31T10:50:35.887Z,98239.97
2022-08-31T10:55:54.298Z,98415.28
2022-08-31T11:01:21.266Z,98452.00
2022-08-31T11:07:28.165Z,98426.69
2022-08-31T11:12:42.784Z,98444.13
2022-08-31T11:18:12.494Z,98457.66
2022-08-31T11:23:42.199Z,98456.44
2022-08-31T11:28:50.395Z,98439.22
2022-08-31T11:34:15.115Z,98399.34
2022-08-31T11:39:31.315Z,98459.59
2022-08-31T11:44:34.368Z,98472.31
2022-08-31T11:49:46.968Z,98479.16
2022-08-31T11:54:50.633Z,98480.19
2022-08-31T11:59:56.397Z,98461.63
2022-08-31T12:05:03.372Z,98350.53
2022-08-31T12:10:23.012Z,98495.63
2022-08-31T12:15:38.204Z,98501.53
2022-08-31T12:21:08.160Z,98493.03
2022-08-31T12:26:35.444Z,98501.78
2022-08-31T12:31:40.505Z,98505.13
2022-08-31T12:36:44.020Z,98496.00
2022-08-31T12:42:06.551Z,98477.28
2022-08-31T12:47:27.716Z,98402.34
2022-08-31T12:52:45.764Z,98460.44
2022-08-31T12:58:04.644Z,98514.03
2022-08-31T13:03:27.304Z,98453.78
2022-08-31T13:08:42.224Z,98474.88
2022-08-31T13:13:44.665Z,98448.38
2022-08-31T13:18:47.198Z,98494.13
2022-08-31T13:23:50.854Z,98500.19
2022-08-31T13:28:56.479Z,98526.59
2022-08-31T13:34:01.436Z,98478.25
2022-08-31T13:39:12.549Z,98501.28
2022-08-31T13:44:21.564Z,98531.09
2022-08-31T13:49:31.175Z,98544.91
2022-08-31T13:54:36.149Z,98522.28
2022-08-31T13:59:40.082Z,98504.94
2022-08-31T14:04:57.498Z,98575.97
2022-08-31T14:10:08.209Z,98576.16
2022-08-31T14:15:16.099Z,98588.88
2022-08-31T14:20:33.977Z,98556.31
2022-08-31T14:25:36.336Z,98550.47
2022-08-31T14:30:39.330Z,98573.34
2022-08-31T14:35:41.865Z,98538.56
2022-08-31T14:40:45.020Z,98563.59
2022-08-31T14:45:47.844Z,98616.03
2022-08-31T14:50:50.205Z,98616.03
2022-08-31T14:55:52.470Z,98589.78
2022-08-31T15:00:55.112Z,98588.88
2022-08-31T15:06:00.386Z,98613.72
2022-08-31T15:11:04.179Z,98565.22
2022-08-31T15:16:08.417Z,98623.53
2022-08-31T15:21:11.854Z,98624.94
2022-08-31T15:26:17.353Z,98606.94
2022-08-31T15:31:23.967Z,98590.19
2022-08-31T15:36:28.193Z,98637.66
2022-08-31T15:41:31.348Z,98636.94
2022-08-31T15:46:52.272Z,98611.47
2022-08-31T15:51:57.793Z,98602.56
2022-08-31T15:57:02.645Z,98620.03
2022-08-31T16:02:06.721Z,98641.59
2022-08-31T16:07:11.381Z,98653.03
2022-08-31T16:12:15.158Z,98591.16
2022-08-31T16:17:20.216Z,98636.56
2022-08-31T16:22:23.401Z,98620.97
2022-08-31T16:27:34.327Z,98651.41
2022-08-31T16:32:36.917Z,98648.84
2022-08-31T16:37:40.390Z,98648.25
2022-08-31T16:42:45.026Z,98643.97
2022-08-31T16:47:47.479Z,98651.22
2022-08-31T16:52:51.306Z,98649.56
2022-08-31T16:57:53.811Z,98668.41
2022-08-31T17:02:56.180Z,98615.00
2022-08-31T17:07:58.680Z,98632.69
2022-08-31T17:13:01.073Z,98682.50
2022-08-31T17:18:03.467Z,98671.78
2022-08-31T17:23:07.163Z,98675.53
2022-08-31T17:28:10.339Z,98686.09
2022-08-31T17:33:13.022Z,98603.34
2022-08-31T17:38:15.539Z,98647.19
2022-08-31T17:43:20.318Z,98593.38
2022-08-31T17:48:24.083Z,98680.56
2022-08-31T17:53:26.630Z,98623.81
2022-08-31T17:58:29.195Z,98660.19
2022-08-31T18:03:31.678Z,98672.09
2022-08-31T18:08:37.863Z,98656.03
2022-08-31T18:13:41.893Z,98582.06
2022-08-31T18:18:48.499Z,98634.75
2022-08-31T18:23:52.722Z,98658.88
2022-08-31T18:28:57.944Z,98457.31
2022-08-31T18:34:02.115Z,98685.34
2022-08-31T18:39:06.824Z,98613.97
2022-08-31T18:44:29.011Z,98605.19
2022-08-31T18:49:35.716Z,98660.59
2022-08-31T18:54:39.939Z,98660.00
2022-08-31T18:59:46.365Z,98663.53
2022-08-31T19:04:51.136Z,98631.72
2022-08-31T19:09:53.949Z,98627.59
2022-08-31T19:14:57.699Z,98645.78
2022-08-31T19:20:03.597Z,98662.91
2022-08-31T19:25:09.333Z,98654.63
2022-08-31T19:30:13.982Z,98663.66
2022-08-31T19:35:17.881Z,98642.06
2022-08-31T19:40:20.430Z,98637.81
2022-08-31T19:45:23.611Z,98647.38
2022-08-31T19:50:26.806Z,98664.72
2022-08-31T19:55:31.482Z,98633.94
2022-08-31T20:00:36.326Z,98597.78
2022-08-31T20:05:42.396Z,98655.00
2022-08-31T20:10:46.184Z,98661.13
2022-08-31T20:15:48.633Z,98644.97
2022-08-31T20:20:51.225Z,98632.97
2022-08-31T20:25:53.578Z,98638.25
2022-08-31T20:31:00.202Z,98558.31
2022-08-31T20:36:14.241Z,98667.19
2022-08-31T20:41:16.807Z,98668.34
2022-08-31T20:46:37.514Z,98669.38
2022-08-31T20:51:41.183Z,98567.34
2022-08-31T20:56:43.839Z,98632.84
2022-08-31T21:01:46.330Z,98619.22
2022-08-31T21:06:49.215Z,98634.13
2022-08-31T21:11:51.727Z,98582.47
2022-08-31T21:16:55.769Z,98567.19
2022-08-31T21:22:01.086Z,98567.03
2022-08-31T21:27:04.227Z,98567.91
2022-08-31T21:32:09.196Z,98585.03
2022-08-31T21:37:11.638Z,98571.31
2022-08-31T21:42:14.080Z,98566.94
2022-08-31T21:47:16.497Z,98579.78
2022-08-31T21:52:18.759Z,98574.63
2022-08-31T21:57:22.565Z,98556.72
2022-08-31T22:02:25.135Z,98601.69
2022-08-31T22:07:27.585Z,98564.75
2022-08-31T22:12:29.828Z,98589.06
2022-08-31T22:17:55.846Z,98578.91
2022-08-31T22:22:55.494Z,98572.88
2022-08-31T22:27:58.159Z,98599.75
2022-08-31T22:33:01.364Z,98570.50
2022-08-31T22:38:03.737Z,98581.19
2022-08-31T22:43:06.229Z,98517.44
2022-08-31T22:48:08.629Z,98573.81
2022-08-31T22:53:12.404Z,98520.38
2022-08-31T22:58:14.736Z,98580.94
2022-08-31T23:03:17.339Z,98611.28
2022-08-31T23:08:22.661Z,98613.13
2022-08-31T23:13:44.870Z,98602.97
2022-08-31T23:18:48.711Z,98535.00
2022-08-31T23:23:53.349Z,98515.19
2022-08-31T23:28:58.119Z,98497.19
2022-08-31T23:34:00.380Z,98466.25
2022-08-31T23:39:05.159Z,98599.34
2022-08-31T23:44:09.490Z,98597.84
2022-08-31T23:49:15.323Z,98572.06
2022-08-31T23:54:18.584Z,98585.13
2022-08-31T23:59:21.114Z,98599.88
